Arendtsville, Pennsylvania
Current Conditions -  °F | °C
As of 10:53 AM on Friday 24 Oct 2014 (Local Time) from KTHV Reporting Station
Clear Clear  
Wind Chill: 62°   Ceiling: Unl
Heat Index: 62°   Visibility: 10mi
Dew Point: 40°   Wind: 18mph
Humidity: 44%   Direction: 310°NW
Pressure: 29.94"   Gusts: 26mph
Location:  39.92°N, 77.3°W
Report Text: KTHV 241453Z AUTO 31016G23KT 10SM CLR 17/04 A2994 RMK AO2 SLP141 T01670044 50003
Loading
Personal Weather Stations






























Interactive Weather Map
Tropical Storm Tracking
New forecast layout! Learn more

10-Day Weather Forecast

Advertisements
Track Severe Weather on mobile